Terminal Aerodrome Forecast
Issued by NWS Jackson, MS

Home | Current Version | Previous Version | Text Only | Print | Product List | Glossary On
Versions: 1 2 3 4 5 6 7 8 9 10 11 12 13 14 15 16 17
000
FTUS44 KJAN 101700
TAFMEI
TAF
KMEI 101720Z 1018/1118 27005KT P6SM VCSH SCT025 BKN090
     FM110200 00000KT 6SM BR BKN130
     FM111000 00000KT 4SM BR BKN250
     FM111400 34004KT P6SM SCT250=

USA.gov is the U.S. government's official web portal to all federal, state and local government web resources and services.